Time;durP1;ratioP1;P1;durP2;ratioP2;P2;SDS_P1;SDS_P2;PMS_P1;PMS_P2;Temp;Humidity;BMP_temperature;BMP_pressure;BME280_temperature;BME280_humidity;BME280_pressure;Samples;Min_cycle;Max_cycle;Signal;HPM_P1;HPM_P2
2022/12/02 00:00:20;;;;;;;12.77;6.87;;;;;;;19.12;53.22;100817.66;5052529;28;20531;-64
2022/12/02 00:02:46;;;;;;;12.47;6.47;;;;;;;19.15;53.30;100814.06;5056022;28;20214;-64
2022/12/02 00:05:14;;;;;;;16.63;7.23;;;;;;;19.09;53.40;100818.44;5053939;28;20461;-64
2022/12/02 00:07:40;;;;;;;12.70;6.60;;;;;;;19.16;53.28;100809.19;5034834;28;20567;-64
2022/12/02 00:10:30;;;;;;;12.43;6.63;;;;;;;19.19;53.41;100806.41;5052845;28;20437;-64
2022/12/02 00:13:06;;;;;;;15.17;6.70;;;;;;;19.12;53.41;100814.81;5052749;28;20176;-64
2022/12/02 00:15:31;;;;;;;12.03;6.53;;;;;;;19.13;53.95;100807.91;5019577;28;20499;-64
2022/12/02 00:17:57;;;;;;;15.00;6.87;;;;;;;19.15;53.74;100808.34;5052443;28;20933;-64
2022/12/02 00:20:22;;;;;;;10.13;5.90;;;;;;;19.14;53.63;100805.84;5052011;28;20761;-64
2022/12/02 00:22:48;;;;;;;11.80;6.37;;;;;;;19.19;53.72;100802.69;5051788;28;20702;-64
2022/12/02 00:25:13;;;;;;;11.73;6.10;;;;;;;19.14;53.77;100803.81;5056756;28;20187;-64
2022/12/02 00:27:39;;;;;;;10.97;6.37;;;;;;;19.13;53.91;100796.44;5072227;28;20529;-64
2022/12/02 00:30:05;;;;;;;16.20;6.50;;;;;;;19.16;54.18;100789.97;5072260;28;20229;-65
2022/12/02 00:32:30;;;;;;;11.97;6.87;;;;;;;19.12;54.01;100785.38;5058024;28;20203;-65
2022/12/02 00:34:55;;;;;;;11.87;6.10;;;;;;;19.10;54.14;100782.03;5072610;28;20791;-64
2022/12/02 00:37:21;;;;;;;12.57;6.33;;;;;;;19.07;54.38;100783.59;5073126;28;20741;-64
2022/12/02 00:39:46;;;;;;;13.67;6.87;;;;;;;19.10;54.05;100771.44;5071476;28;20182;-64
2022/12/02 00:42:12;;;;;;;12.00;6.60;;;;;;;19.06;54.34;100776.22;5055308;28;20727;-64
2022/12/02 00:47:21;;;;;;;13.83;7.17;;;;;;;19.03;54.58;100768.41;5063106;28;20225;-64
2022/12/02 00:49:46;;;;;;;14.13;7.00;;;;;;;19.07;54.39;100766.44;5073027;28;20409;-64
2022/12/02 00:52:12;;;;;;;9.63;6.67;;;;;;;19.07;54.35;100760.72;5072858;28;20179;-64
2022/12/02 00:54:37;;;;;;;14.10;7.50;;;;;;;19.05;54.61;100768.00;5073064;28;20238;-64
2022/12/02 00:57:03;;;;;;;13.70;6.27;;;;;;;19.10;54.41;100759.97;5061477;28;20278;-64
2022/12/02 00:59:28;;;;;;;13.83;6.30;;;;;;;19.06;54.62;100759.06;5053140;28;20172;-64
2022/12/02 01:01:54;;;;;;;14.20;6.33;;;;;;;19.06;54.58;100761.94;5052892;28;20192;-64
2022/12/02 01:04:19;;;;;;;10.20;6.10;;;;;;;19.04;54.64;100760.63;5067614;28;20237;-65
2022/12/02 01:06:44;;;;;;;15.40;6.10;;;;;;;19.09;54.59;100755.47;5066261;28;20194;-64
2022/12/02 01:09:10;;;;;;;10.60;6.40;;;;;;;19.00;54.88;100757.69;5072909;28;20183;-64
2022/12/02 01:11:35;;;;;;;14.00;6.50;;;;;;;19.04;54.70;100752.06;5072285;28;20216;-65
2022/12/02 01:14:01;;;;;;;11.30;5.40;;;;;;;19.09;54.70;100752.59;5070813;28;20577;-64
2022/12/02 01:16:26;;;;;;;8.43;5.43;;;;;;;19.05;54.77;100754.53;5054929;28;20903;-65
2022/12/02 01:18:52;;;;;;;9.13;5.27;;;;;;;19.02;54.99;100751.63;5052168;28;20175;-64
2022/12/02 01:21:18;;;;;;;11.27;6.90;;;;;;;19.10;54.61;100750.56;5054524;28;20273;-65
2022/12/02 01:23:43;;;;;;;12.60;6.47;;;;;;;19.08;54.67;100756.69;5052330;28;20174;-65
2022/12/02 01:26:08;;;;;;;9.80;5.70;;;;;;;19.04;54.92;100750.03;5067767;28;20505;-65
2022/12/02 01:28:34;;;;;;;12.57;6.53;;;;;;;19.06;54.64;100744.75;5071769;28;20600;-65
2022/12/02 01:30:59;;;;;;;11.73;5.80;;;;;;;19.09;54.88;100751.75;5037322;28;20905;-65
2022/12/02 01:33:25;;;;;;;8.67;5.50;;;;;;;19.07;54.96;100749.28;5060019;28;20183;-64
2022/12/02 01:35:50;;;;;;;9.73;5.83;;;;;;;19.02;55.17;100746.69;5068123;28;20555;-65
2022/12/02 01:38:15;;;;;;;15.23;6.10;;;;;;;19.07;54.85;100749.28;5072898;28;20622;-65
2022/12/02 01:40:41;;;;;;;10.47;5.90;;;;;;;19.07;55.00;100749.28;5069593;28;20200;-64
2022/12/02 01:43:06;;;;;;;9.77;5.90;;;;;;;19.05;54.94;100757.41;5052467;28;20529;-64
2022/12/02 01:45:32;;;;;;;9.10;5.57;;;;;;;19.10;55.34;100747.69;5019258;28;20639;-65
2022/12/02 01:47:59;;;;;;;9.50;5.83;;;;;;;19.06;55.09;100752.53;5054042;28;20643;-65
2022/12/02 01:50:25;;;;;;;12.17;6.53;;;;;;;19.04;54.97;100755.75;5034730;28;20213;-65
2022/12/02 01:52:50;;;;;;;10.10;5.50;;;;;;;19.04;55.15;100749.19;5052712;28;20414;-65
2022/12/02 01:55:19;;;;;;;10.73;6.40;;;;;;;19.05;55.19;100747.97;5037040;28;20296;-65
2022/12/02 01:57:44;;;;;;;13.50;6.37;;;;;;;19.02;55.01;100752.41;5053869;28;20160;-64
2022/12/02 02:00:37;;;;;;;14.97;5.90;;;;;;;19.02;55.40;100752.41;5072403;28;20880;-65
2022/12/02 02:03:03;;;;;;;8.30;5.67;;;;;;;19.01;55.22;100745.03;5075384;28;20186;-65
2022/12/02 02:05:29;;;;;;;10.00;5.40;;;;;;;19.02;55.49;100740.97;5061565;28;20507;-65
2022/12/02 02:08:03;;;;;;;8.57;5.40;;;;;;;19.00;55.40;100737.66;5038481;28;20698;-64
2022/12/02 02:10:29;;;;;;;8.40;4.80;;;;;;;19.00;55.34;100731.94;5038035;28;20410;-65
2022/12/02 02:12:54;;;;;;;11.50;6.43;;;;;;;19.05;55.25;100737.38;5056347;28;20418;-65
2022/12/02 02:15:20;;;;;;;8.30;5.53;;;;;;;18.99;55.49;100730.28;5073350;28;20213;-65
2022/12/02 02:17:46;;;;;;;8.40;5.50;;;;;;;19.00;55.35;100734.81;5041023;28;20194;-65
2022/12/02 02:20:13;;;;;;;12.00;6.00;;;;;;;18.97;55.36;100729.81;5057898;28;20172;-64
2022/12/02 02:23:00;;;;;;;10.67;5.33;;;;;;;18.98;55.73;100722.91;5054678;28;20274;-65
2022/12/02 02:25:26;;;;;;;9.20;5.80;;;;;;;18.99;55.64;100729.44;5037773;28;20410;-65
2022/12/02 02:27:56;;;;;;;11.50;5.90;;;;;;;18.93;55.79;100733.81;5058510;28;20909;-65
2022/12/02 02:30:21;;;;;;;8.10;5.33;;;;;;;18.95;55.59;100735.09;5055753;28;20167;-65
2022/12/02 02:32:47;;;;;;;9.40;5.50;;;;;;;18.95;55.58;100726.50;5038223;28;20417;-64
2022/12/02 02:35:13;;;;;;;8.23;5.20;;;;;;;18.90;56.01;100721.09;5052504;28;20618;-65
2022/12/02 02:37:38;;;;;;;8.47;5.60;;;;;;;18.91;55.79;100721.94;5053221;28;20422;-65
2022/12/02 02:40:04;;;;;;;10.90;5.83;;;;;;;18.95;55.56;100723.66;5067424;28;20186;-65
2022/12/02 02:42:30;;;;;;;10.67;5.50;;;;;;;18.96;55.85;100721.63;5056896;28;20220;-65
2022/12/02 02:44:55;;;;;;;7.90;4.90;;;;;;;18.95;55.49;100722.81;5074576;28;20175;-65
2022/12/02 02:47:20;;;;;;;9.90;5.43;;;;;;;18.97;55.63;100723.28;5049542;28;20209;-65
2022/12/02 02:49:46;;;;;;;8.60;5.57;;;;;;;18.94;55.76;100715.44;5055658;28;20532;-64
2022/12/02 02:52:11;;;;;;;11.10;6.23;;;;;;;18.95;55.67;100717.94;5074838;28;20827;-65
2022/12/02 02:54:37;;;;;;;12.50;5.87;;;;;;;18.94;55.60;100710.56;5040377;28;20182;-65
2022/12/02 02:57:02;;;;;;;9.70;5.60;;;;;;;18.93;55.99;100708.91;5075164;28;20229;-65
2022/12/02 02:59:28;;;;;;;7.40;5.30;;;;;;;18.94;55.74;100713.41;5057221;28;20179;-65
2022/12/02 03:01:53;;;;;;;8.07;5.20;;;;;;;18.95;55.69;100712.22;5073123;28;20195;-65
2022/12/02 03:04:19;;;;;;;10.63;5.53;;;;;;;18.94;55.93;100710.56;5056765;28;20218;-65
2022/12/02 03:06:44;;;;;;;9.33;5.50;;;;;;;18.95;55.79;100708.50;5075224;28;20301;-65
2022/12/02 03:09:11;;;;;;;10.30;5.07;;;;;;;18.95;55.57;100700.75;5072622;28;20748;-64
2022/12/02 03:11:37;;;;;;;8.37;5.90;;;;;;;18.92;56.01;100707.22;5051145;28;20184;-65
2022/12/02 03:14:03;;;;;;;9.93;5.97;;;;;;;18.90;55.76;100701.06;5037298;28;20853;-65
2022/12/02 03:16:28;;;;;;;9.27;5.80;;;;;;;18.92;56.00;100697.84;5037267;28;20179;-65
2022/12/02 03:18:54;;;;;;;7.13;5.17;;;;;;;18.90;55.58;100703.06;5054748;28;20186;-65
2022/12/02 03:21:19;;;;;;;8.90;5.50;;;;;;;18.93;55.89;100702.34;5039731;28;20211;-65
2022/12/02 03:23:45;;;;;;;9.20;5.30;;;;;;;18.94;55.67;100698.28;5036947;28;20182;-65
2022/12/02 03:26:11;;;;;;;9.77;5.83;;;;;;;18.90;56.05;100695.34;5022868;28;20176;-65
2022/12/02 03:28:37;;;;;;;10.00;6.30;;;;;;;18.89;56.04;100698.56;5054588;28;20419;-65
2022/12/02 03:31:02;;;;;;;11.07;5.60;;;;;;;18.88;55.98;100694.91;5061573;28;21495;-65
2022/12/02 03:33:28;;;;;;;10.33;5.10;;;;;;;18.91;56.07;100705.56;5057150;28;20664;-65
2022/12/02 03:35:53;;;;;;;9.30;5.50;;;;;;;18.92;55.80;100695.78;5074679;28;20171;-65
2022/12/02 03:38:19;;;;;;;8.70;5.63;;;;;;;18.90;56.09;100703.91;5073701;28;20170;-65
2022/12/02 03:40:44;;;;;;;9.17;5.23;;;;;;;18.90;56.16;100706.78;5070137;28;20252;-65
2022/12/02 03:43:10;;;;;;;8.40;5.13;;;;;;;18.87;56.03;100701.78;5054676;28;20642;-65
2022/12/02 03:45:35;;;;;;;9.50;5.47;;;;;;;18.92;55.89;100697.84;5062304;28;20191;-65
2022/12/02 03:48:01;;;;;;;7.53;4.77;;;;;;;18.90;56.08;100701.06;5037269;28;20194;-65
2022/12/02 03:50:27;;;;;;;9.77;5.80;;;;;;;18.89;56.08;100704.28;5053908;28;20561;-65
2022/12/02 03:52:53;;;;;;;9.67;5.30;;;;;;;18.90;56.04;100692.47;5057241;28;20188;-65
2022/12/02 03:55:18;;;;;;;9.20;6.30;;;;;;;18.90;55.93;100698.19;5036091;28;21687;-65
2022/12/02 03:57:43;;;;;;;8.07;4.97;;;;;;;18.90;56.24;100692.47;5039214;28;20179;-65
2022/12/02 04:00:10;;;;;;;7.20;4.90;;;;;;;18.89;55.94;100692.84;5035908;28;20172;-65
2022/12/02 04:02:35;;;;;;;9.30;5.73;;;;;;;18.89;55.93;100690.81;5036890;28;20175;-64
2022/12/02 04:05:01;;;;;;;9.00;5.30;;;;;;;18.89;56.15;100687.13;5070632;28;20468;-64
2022/12/02 04:07:26;;;;;;;9.53;5.10;;;;;;;18.90;55.90;100689.63;5074100;28;20216;-64
2022/12/02 04:09:51;;;;;;;10.47;5.43;;;;;;;18.87;56.08;100684.63;5070325;28;20191;-65
2022/12/02 04:12:17;;;;;;;14.43;6.23;;;;;;;18.88;56.14;100692.03;5074198;28;20163;-65
2022/12/02 04:14:42;;;;;;;12.60;4.77;;;;;;;18.88;56.10;100683.44;5074175;28;20183;-64
2022/12/02 04:17:08;;;;;;;8.47;4.80;;;;;;;18.85;56.28;100681.31;5074608;28;20186;-65
2022/12/02 04:19:33;;;;;;;8.90;5.50;;;;;;;18.87;56.29;100675.22;5066185;28;20241;-65
2022/12/02 04:21:59;;;;;;;11.20;5.33;;;;;;;18.87;56.17;100675.22;5053776;28;20199;-65
2022/12/02 04:24:24;;;;;;;9.40;5.23;;;;;;;18.87;56.08;100681.75;5054210;28;20623;-65
2022/12/02 04:26:50;;;;;;;9.23;5.50;;;;;;;18.88;56.19;100671.16;5055273;28;20655;-65
2022/12/02 04:29:15;;;;;;;8.33;5.03;;;;;;;18.93;56.03;100671.72;5054818;28;20167;-64
2022/12/02 04:31:40;;;;;;;9.63;5.30;;;;;;;18.86;56.15;100667.88;5063687;28;20176;-65
2022/12/02 04:34:06;;;;;;;8.33;5.53;;;;;;;18.87;56.34;100664.59;5048379;28;20186;-64
2022/12/02 04:36:31;;;;;;;7.80;5.30;;;;;;;18.87;56.06;100661.75;5071510;28;20194;-65
2022/12/02 04:38:57;;;;;;;7.17;4.97;;;;;;;18.89;56.22;100655.66;5054523;28;20202;-64
2022/12/02 04:41:22;;;;;;;7.40;5.00;;;;;;;18.90;56.23;100658.16;5053618;28;20195;-65
2022/12/02 04:43:48;;;;;;;7.93;4.73;;;;;;;18.94;56.06;100655.34;5063947;28;20190;-65
2022/12/02 04:46:14;;;;;;;8.53;5.57;;;;;;;18.87;56.29;100653.16;5073546;28;20155;-64
2022/12/02 04:48:39;;;;;;;7.67;4.80;;;;;;;18.85;55.98;100649.84;5071651;28;20669;-64
2022/12/02 04:51:05;;;;;;;8.13;5.47;;;;;;;18.89;56.07;100644.22;5035663;28;20210;-64
2022/12/02 04:53:30;;;;;;;13.13;5.70;;;;;;;18.88;56.13;100651.97;5053282;28;20615;-64
2022/12/02 04:55:55;;;;;;;8.67;5.07;;;;;;;18.86;56.15;100645.78;5062357;28;20223;-64
2022/12/02 04:58:21;;;;;;;9.00;5.57;;;;;;;18.88;56.13;100643.41;5072837;28;20309;-65
2022/12/02 05:00:46;;;;;;;7.20;4.83;;;;;;;18.84;56.37;100642.47;5063443;28;20203;-65
2022/12/02 05:03:12;;;;;;;7.97;5.40;;;;;;;18.87;56.23;100636.00;5042115;28;20194;-65
2022/12/02 05:05:37;;;;;;;6.90;5.20;;;;;;;18.92;56.06;100635.69;5073036;28;20195;-65
2022/12/02 05:08:04;;;;;;;8.40;5.20;;;;;;;18.88;56.10;100643.41;5073414;28;20178;-65
2022/12/02 05:10:29;;;;;;;9.57;5.87;;;;;;;18.87;56.21;100640.91;5056153;28;20187;-65
2022/12/02 05:12:55;;;;;;;7.60;4.43;;;;;;;18.91;56.18;100634.03;5053726;28;20413;-65
2022/12/02 05:15:20;;;;;;;8.40;4.83;;;;;;;18.91;56.05;100636.91;5055711;28;20184;-65
2022/12/02 05:17:46;;;;;;;9.37;4.60;;;;;;;18.90;56.09;100634.41;5053269;28;20183;-65
2022/12/02 05:20:12;;;;;;;8.57;5.00;;;;;;;18.88;56.14;100633.97;5056274;28;20183;-65
2022/12/02 05:22:37;;;;;;;9.27;5.70;;;;;;;18.88;56.31;100640.53;5052594;28;20187;-65
2022/12/02 05:25:03;;;;;;;8.80;4.77;;;;;;;18.87;56.28;100635.19;5073165;28;20413;-65
2022/12/02 05:27:28;;;;;;;8.50;5.10;;;;;;;18.90;56.34;100635.25;5073511;28;20163;-65
2022/12/02 05:29:54;;;;;;;10.00;4.93;;;;;;;18.89;56.15;100632.75;5071650;28;20181;-65
2022/12/02 05:32:19;;;;;;;7.50;5.03;;;;;;;18.87;56.13;100635.19;5074290;28;20550;-65
2022/12/02 05:34:45;;;;;;;9.17;5.47;;;;;;;18.90;56.15;100640.97;5076840;28;20550;-65
2022/12/02 05:37:10;;;;;;;7.00;4.20;;;;;;;18.90;56.06;100640.13;5062625;28;20602;-65
2022/12/02 05:39:36;;;;;;;10.33;5.47;;;;;;;18.87;56.15;100640.91;5059167;28;20654;-65
2022/12/02 05:42:04;;;;;;;9.27;5.03;;;;;;;18.87;56.26;100641.72;5071683;28;20204;-65
2022/12/02 05:44:30;;;;;;;9.00;5.43;;;;;;;18.90;56.21;100628.69;5056924;28;20176;-65
2022/12/02 05:47:00;;;;;;;7.40;5.00;;;;;;;18.94;56.06;100635.31;5039046;28;20762;-65
2022/12/02 05:49:25;;;;;;;7.43;4.70;;;;;;;18.90;56.20;100635.25;5041951;28;20239;-65
2022/12/02 05:51:58;;;;;;;8.70;5.43;;;;;;;18.90;56.00;100640.97;5039030;28;20460;-65
2022/12/02 05:54:24;;;;;;;11.47;5.80;;;;;;;18.90;56.26;100640.97;5058626;28;20190;-65
2022/12/02 05:56:49;;;;;;;9.27;5.27;;;;;;;18.85;56.31;100632.69;5056393;28;20539;-65
2022/12/02 05:59:16;;;;;;;9.70;6.07;;;;;;;18.89;56.35;100639.31;5056443;28;20776;-65
2022/12/02 06:01:42;;;;;;;7.67;4.87;;;;;;;18.88;56.25;100636.84;5073546;28;20206;-65
2022/12/02 06:04:29;;;;;;;6.90;5.00;;;;;;;18.89;56.14;100639.31;5076576;28;20424;-65
2022/12/02 06:06:55;;;;;;;9.63;5.90;;;;;;;18.88;56.24;100637.69;5077077;28;20175;-65
2022/12/02 06:09:24;;;;;;;8.07;5.27;;;;;;;18.89;56.06;100633.59;5073800;28;21214;-65
2022/12/02 06:11:50;;;;;;;8.27;5.20;;;;;;;18.87;56.41;100633.13;5076474;28;20172;-65
2022/12/02 06:14:18;;;;;;;7.80;5.13;;;;;;;18.90;56.18;100640.97;5074857;28;20563;-65
2022/12/02 06:16:46;;;;;;;7.73;4.73;;;;;;;18.87;56.26;100636.00;5058284;28;20175;-65
2022/12/02 06:19:24;;;;;;;9.40;5.30;;;;;;;18.87;56.15;100621.69;5056530;28;20438;-65
2022/12/02 06:21:50;;;;;;;6.00;4.20;;;;;;;18.90;55.94;100628.69;5067045;28;20964;-65
2022/12/02 06:24:15;;;;;;;7.03;5.03;;;;;;;18.88;56.33;100629.09;5058886;28;20410;-66
2022/12/02 06:26:41;;;;;;;9.07;5.40;;;;;;;18.92;56.17;100626.31;5056451;28;20192;-65
2022/12/02 06:29:08;;;;;;;8.57;5.10;;;;;;;18.91;56.13;100631.19;5056755;28;20167;-65
2022/12/02 06:31:37;;;;;;;8.93;5.00;;;;;;;18.93;56.06;100622.22;5055862;28;20172;-65
2022/12/02 06:34:39;;;;;;;6.60;4.77;;;;;;;18.89;56.23;100615.59;5051870;28;20468;-65
2022/12/02 06:37:20;;;;;;;9.60;5.23;;;;;;;18.90;56.23;100614.38;5076735;28;20454;-66
2022/12/02 06:39:47;;;;;;;7.47;4.70;;;;;;;18.92;56.21;100615.66;5053044;28;20513;-65
2022/12/02 06:42:25;;;;;;;10.63;5.60;;;;;;;18.92;56.27;100612.81;5057069;28;20473;-65
2022/12/02 06:45:03;;;;;;;7.50;4.33;;;;;;;18.90;56.02;100615.22;5078678;28;20423;-65
2022/12/02 06:47:31;;;;;;;7.17;4.97;;;;;;;18.91;56.03;100616.88;5072684;28;20425;-65
2022/12/02 06:49:57;;;;;;;7.40;4.70;;;;;;;18.92;56.34;100626.31;5071548;28;20449;-65
2022/12/02 06:52:23;;;;;;;7.00;5.10;;;;;;;18.88;56.15;100626.22;5073412;28;20456;-65
2022/12/02 06:54:48;;;;;;;7.00;4.87;;;;;;;18.88;56.18;100625.41;5072983;28;20490;-66
2022/12/02 06:57:15;;;;;;;7.67;4.97;;;;;;;18.93;56.27;100620.22;5037248;28;20228;-65
2022/12/02 06:59:41;;;;;;;7.90;4.70;;;;;;;18.90;56.21;100618.09;5020008;28;20627;-65
2022/12/02 07:02:17;;;;;;;7.90;5.10;;;;;;;18.88;56.22;100619.66;5035382;28;20461;-65
2022/12/02 07:04:46;;;;;;;7.63;4.93;;;;;;;18.92;56.34;100626.31;5034553;28;20211;-65
2022/12/02 07:07:41;;;;;;;7.80;5.27;;;;;;;18.92;56.80;100629.97;5023366;28;20472;-65
2022/12/02 07:10:29;;;;;;;6.40;4.27;;;;;;;18.92;56.20;100614.88;5032044;28;20955;-65
2022/12/02 07:12:56;;;;;;;8.00;5.13;;;;;;;18.90;56.24;100615.22;5037758;28;20442;-65
2022/12/02 07:15:29;;;;;;;8.70;5.10;;;;;;;18.93;56.33;100614.50;5053377;28;21215;-66
2022/12/02 07:17:59;;;;;;;14.67;8.87;;;;;;;18.74;55.68;100628.78;5061334;28;20508;-65
2022/12/02 07:20:25;;;;;;;35.27;18.77;;;;;;;18.19;49.33;100626.19;5054471;28;20444;-65
2022/12/02 07:22:56;;;;;;;37.43;21.87;;;;;;;18.21;53.28;100612.34;5055309;28;20433;-64
2022/12/02 07:25:35;;;;;;;43.40;25.00;;;;;;;18.39;51.54;100618.53;5050044;28;20206;-65
2022/12/02 07:28:19;;;;;;;45.10;24.33;;;;;;;18.49;48.26;100623.69;5047513;28;20444;-65
2022/12/02 07:30:45;;;;;;;41.47;21.77;;;;;;;18.76;48.29;100623.50;5047339;28;20868;-65
2022/12/02 07:33:11;;;;;;;41.07;20.13;;;;;;;18.87;48.24;100618.81;5030342;28;20426;-66
2022/12/02 07:35:36;;;;;;;32.30;19.13;;;;;;;19.26;48.79;100613.97;5056121;28;20164;-65
2022/12/02 07:38:01;;;;;;;33.50;17.80;;;;;;;19.31;47.94;100611.63;5049398;28;20183;-65
2022/12/02 07:40:27;;;;;;;32.40;17.30;;;;;;;19.42;47.97;100614.72;5052138;28;20542;-65
2022/12/02 07:42:52;;;;;;;32.20;17.37;;;;;;;19.67;47.64;100613.16;5056886;28;20220;-65
2022/12/02 07:45:18;;;;;;;28.50;16.23;;;;;;;19.68;47.84;100615.63;5051421;28;20254;-65
2022/12/02 07:47:44;;;;;;;28.80;16.40;;;;;;;19.66;47.83;100615.16;5076064;28;20238;-64
2022/12/02 07:50:10;;;;;;;30.03;15.57;;;;;;;19.59;48.84;100606.47;5069320;28;20222;-65
2022/12/02 07:52:35;;;;;;;24.80;15.27;;;;;;;19.66;49.45;100609.44;5035719;28;20650;-65
2022/12/02 07:55:01;;;;;;;31.00;14.97;;;;;;;19.66;49.65;100608.63;5069106;28;20412;-65
2022/12/02 07:57:27;;;;;;;30.77;15.70;;;;;;;19.46;49.65;100616.41;5076260;28;20243;-65
2022/12/02 07:59:52;;;;;;;25.33;14.93;;;;;;;19.40;49.94;100605.66;5070580;28;20870;-64
2022/12/02 08:02:18;;;;;;;28.10;14.83;;;;;;;19.39;50.75;100613.44;5090037;28;20190;-64
2022/12/02 08:04:43;;;;;;;28.33;14.50;;;;;;;19.40;50.65;100609.34;5074238;28;20205;-64
2022/12/02 08:07:09;;;;;;;24.60;12.70;;;;;;;19.36;51.82;100611.31;5061355;28;20179;-65
2022/12/02 08:09:34;;;;;;;16.73;11.20;;;;;;;19.33;51.92;100609.22;5079262;28;20198;-65
2022/12/02 08:12:00;;;;;;;20.60;12.30;;;;;;;19.29;51.65;100614.03;5093655;28;20159;-65
2022/12/02 08:14:25;;;;;;;25.30;13.10;;;;;;;19.32;51.91;100609.59;5092656;28;20193;-65
2022/12/02 08:16:51;;;;;;;21.60;12.47;;;;;;;19.27;52.36;100607.84;5085393;28;20604;-65
2022/12/02 08:19:16;;;;;;;29.50;12.47;;;;;;;19.28;52.05;100605.84;5093089;28;20186;-65
2022/12/02 08:21:42;;;;;;;18.30;11.10;;;;;;;19.27;52.14;100609.91;5093756;28;20186;-65
2022/12/02 08:24:07;;;;;;;20.90;11.80;;;;;;;19.17;51.55;100608.44;5077412;28;20633;-65
2022/12/02 08:26:33;;;;;;;19.90;12.60;;;;;;;19.06;50.83;100610.25;5069440;28;20183;-65
2022/12/02 08:28:58;;;;;;;22.03;13.17;;;;;;;19.00;50.07;100600.31;5065472;28;20189;-65
2022/12/02 08:31:24;;;;;;;23.90;13.40;;;;;;;19.00;50.55;100600.31;5075203;28;20206;-64
2022/12/02 08:33:50;;;;;;;27.00;13.47;;;;;;;18.93;50.10;100608.78;5065010;28;20194;-65
2022/12/02 08:36:15;;;;;;;22.30;13.53;;;;;;;18.86;50.08;100610.66;5053891;28;20179;-65
2022/12/02 08:38:41;;;;;;;25.90;15.10;;;;;;;18.93;50.23;100603.03;5068808;28;20794;-65
2022/12/02 08:41:06;;;;;;;22.90;13.97;;;;;;;18.94;49.97;100598.97;5059417;28;20314;-64
2022/12/02 08:43:32;;;;;;;26.67;14.87;;;;;;;18.94;49.50;100596.13;5036145;28;20674;-65
2022/12/02 08:45:57;;;;;;;25.40;14.33;;;;;;;18.88;49.46;100591.06;5065306;28;20187;-64
2022/12/02 08:48:23;;;;;;;25.73;13.60;;;;;;;18.91;49.21;100585.41;5078376;28;20580;-65
2022/12/02 08:50:48;;;;;;;22.13;14.20;;;;;;;18.93;49.45;100588.75;5079904;28;20636;-64
2022/12/02 08:53:14;;;;;;;26.70;13.33;;;;;;;18.91;49.44;100585.41;5067417;28;20565;-65
2022/12/02 08:55:39;;;;;;;24.13;12.23;;;;;;;18.90;50.02;100589.47;5072445;28;20223;-65
2022/12/02 08:58:05;;;;;;;26.43;13.20;;;;;;;18.93;51.12;100582.19;5063461;28;20180;-65
2022/12/02 09:00:30;;;;;;;24.03;12.60;;;;;;;18.94;52.15;100587.53;5059312;28;20187;-65
2022/12/02 09:02:56;;;;;;;28.40;12.57;;;;;;;18.96;52.92;100584.31;5070586;28;20240;-65
2022/12/02 09:05:21;;;;;;;27.97;12.40;;;;;;;18.99;53.60;100587.22;5065226;28;20218;-65
2022/12/02 09:07:47;;;;;;;28.33;12.10;;;;;;;18.98;53.48;100582.72;5070772;28;20178;-66
2022/12/02 09:10:12;;;;;;;25.73;13.13;;;;;;;18.99;53.12;100575.78;5089806;28;20191;-66
2022/12/02 09:12:38;;;;;;;31.77;12.93;;;;;;;19.02;52.94;100577.88;5066864;28;20176;-66
2022/12/02 09:15:04;;;;;;;22.63;13.07;;;;;;;19.04;52.97;100583.22;5059842;28;20194;-66
2022/12/02 09:17:29;;;;;;;27.23;12.87;;;;;;;19.08;53.09;100579.25;5054612;28;20534;-65
2022/12/02 09:19:55;;;;;;;24.67;12.47;;;;;;;19.11;52.77;100583.38;5074825;28;20437;-65
2022/12/02 09:22:20;;;;;;;27.23;12.63;;;;;;;19.10;53.11;100587.44;5048684;28;20244;-65
2022/12/02 09:24:45;;;;;;;25.57;12.00;;;;;;;19.11;53.04;100594.84;5071709;28;20192;-65
2022/12/02 09:27:11;;;;;;;32.47;11.90;;;;;;;19.09;53.08;100582.91;5057707;28;20180;-65
2022/12/02 09:29:36;;;;;;;21.30;11.07;;;;;;;19.10;53.29;100588.28;5075796;28;20194;-65
2022/12/02 09:32:02;;;;;;;22.77;11.17;;;;;;;19.08;53.54;100584.13;5064373;28;20185;-66
2022/12/02 09:34:27;;;;;;;18.53;10.60;;;;;;;19.11;53.53;100589.09;5061030;28;20179;-66
2022/12/02 09:36:52;;;;;;;18.90;10.13;;;;;;;19.11;53.75;100595.63;5062692;28;20183;-65
2022/12/02 09:39:18;;;;;;;24.37;11.37;;;;;;;19.07;53.52;100583.28;5074216;28;20191;-66
2022/12/02 09:41:43;;;;;;;25.83;10.80;;;;;;;19.05;53.80;100582.84;5061123;28;20229;-65
2022/12/02 09:44:09;;;;;;;24.07;10.50;;;;;;;19.07;53.82;100582.47;5065692;28;20203;-65
2022/12/02 09:46:34;;;;;;;23.53;10.10;;;;;;;19.09;53.88;100574.34;5074159;28;20821;-66
2022/12/02 09:49:00;;;;;;;16.73;9.53;;;;;;;19.10;54.09;100581.69;5037390;28;20183;-66
2022/12/02 09:51:25;;;;;;;21.00;10.90;;;;;;;19.03;53.98;100570.97;5070840;28;20258;-66
2022/12/02 09:53:51;;;;;;;18.50;10.60;;;;;;;19.01;54.11;100578.28;5064312;28;20184;-66
2022/12/02 09:56:18;;;;;;;17.60;10.47;;;;;;;19.06;54.09;100570.19;5065423;28;20222;-66
2022/12/02 09:58:44;;;;;;;22.53;9.60;;;;;;;19.07;54.08;100573.91;5047782;28;20207;-66
2022/12/02 10:01:10;;;;;;;20.70;10.40;;;;;;;19.04;54.11;100577.50;5028830;28;20476;-66
2022/12/02 10:03:35;;;;;;;21.03;10.67;;;;;;;19.05;54.56;100562.81;5066273;28;20900;-65
2022/12/02 10:06:02;;;;;;;17.67;9.67;;;;;;;19.06;54.20;100569.38;5064011;28;20458;-65
2022/12/02 10:08:27;;;;;;;16.97;9.50;;;;;;;19.03;54.37;100570.13;5049219;28;20172;-65
2022/12/02 10:10:53;;;;;;;17.13;10.10;;;;;;;19.00;54.65;100565.16;5058802;28;20424;-66
2022/12/02 10:13:19;;;;;;;17.03;10.23;;;;;;;19.01;54.54;100567.63;5060680;28;20653;-66
2022/12/02 10:15:45;;;;;;;19.17;9.87;;;;;;;19.03;54.65;100570.97;5058948;28;20609;-66
2022/12/02 10:18:18;;;;;;;17.67;9.90;;;;;;;19.04;54.67;100561.16;5060746;28;20434;-66
2022/12/02 10:20:44;;;;;;;22.33;9.77;;;;;;;19.00;54.89;100563.13;5066211;28;20210;-66
2022/12/02 10:23:13;;;;;;;15.33;9.10;;;;;;;19.01;54.77;100561.91;5072758;28;20438;-66
2022/12/02 10:25:51;;;;;;;19.37;9.20;;;;;;;18.97;54.96;100566.72;5058162;28;20186;-65
2022/12/02 10:28:28;;;;;;;18.33;10.10;;;;;;;18.97;55.11;100552.41;5069032;28;20425;-66
2022/12/02 10:31:00;;;;;;;23.77;9.83;;;;;;;18.98;54.94;100554.09;5057254;28;20426;-65
2022/12/02 10:33:29;;;;;;;20.10;10.00;;;;;;;19.00;54.87;100545.97;5048774;28;20444;-65
2022/12/02 10:35:55;;;;;;;15.57;9.10;;;;;;;19.03;54.86;100548.06;5069723;28;20418;-65
2022/12/02 10:38:43;;;;;;;17.63;9.80;;;;;;;19.01;55.07;100546.78;5059855;28;21004;-65
2022/12/02 10:41:15;;;;;;;18.43;8.77;;;;;;;18.98;55.21;100551.25;5069527;28;20230;-65
2022/12/02 10:43:41;;;;;;;17.93;10.50;;;;;;;19.00;55.05;100545.13;5070550;28;20868;-66
2022/12/02 10:46:07;;;;;;;15.80;9.20;;;;;;;19.01;55.18;100539.03;5072300;28;20429;-66
2022/12/02 10:48:34;;;;;;;18.90;9.43;;;;;;;18.99;55.12;100534.88;5049164;28;20513;-66
2022/12/02 10:50:59;;;;;;;17.33;10.10;;;;;;;18.99;55.26;100535.72;5071881;28;20183;-66
2022/12/02 10:53:27;;;;;;;11.93;7.77;;;;;;;19.03;55.23;100530.06;5043565;28;20434;-66
2022/12/02 10:55:53;;;;;;;14.97;9.13;;;;;;;19.04;55.10;100520.28;5058513;28;20309;-66
2022/12/02 10:58:25;;;;;;;17.17;9.10;;;;;;;19.01;55.29;100527.56;5043759;28;20985;-65
2022/12/02 11:00:51;;;;;;;16.40;9.27;;;;;;;19.05;55.05;100521.91;5074233;28;20905;-66
2022/12/02 11:03:16;;;;;;;18.13;9.00;;;;;;;19.02;55.08;100523.50;5066615;28;20414;-65
2022/12/02 11:05:42;;;;;;;15.53;9.53;;;;;;;19.06;55.29;100524.41;5060424;28;20203;-65
2022/12/02 11:08:24;;;;;;;16.57;9.23;;;;;;;19.02;55.40;100523.50;5074038;28;20187;-65
2022/12/02 11:11:08;;;;;;;14.83;8.73;;;;;;;19.08;55.16;100515.44;5044532;28;20278;-66
2022/12/02 11:13:54;;;;;;;14.03;9.03;;;;;;;19.06;55.17;100512.16;5043495;28;20418;-66
2022/12/02 11:16:26;;;;;;;16.20;9.10;;;;;;;19.05;55.28;100510.47;5054094;28;20536;-66
2022/12/02 11:19:04;;;;;;;15.67;9.03;;;;;;;19.03;55.47;100510.88;5073589;28;20429;-65
2022/12/02 11:21:29;;;;;;;16.10;9.67;;;;;;;19.02;55.20;100506.34;5075321;28;20466;-65